Time;durP1;ratioP1;P1;durP2;ratioP2;P2;SDS_P1;SDS_P2;PMS_P1;PMS_P2;Temp;Humidity;BMP_temperature;BMP_pressure;BME280_temperature;BME280_humidity;BME280_pressure;Samples;Min_cycle;Max_cycle;Signal;HPM_P1;HPM_P2
2022/10/04 03:53:12;;;;;;;;;;;21.60;96.60;;;;;;5115700;23;19925;-74
2022/10/04 03:55:42;;;;;;;;;;;21.50;96.50;;;;;;5037020;28;19931;-74
2022/10/04 03:58:09;;;;;;;;;;;21.60;96.90;;;;;;5036945;28;20334;-74
2022/10/04 04:00:39;;;;;;;;;;;21.60;96.60;;;;;;5036931;28;19925;-73
2022/10/04 04:03:08;;;;;;;;;;;21.60;96.60;;;;;;5036774;28;20112;-73
2022/10/04 04:05:37;;;;;;;;;;;21.60;96.60;;;;;;5037213;28;20012;-75
2022/10/04 04:08:06;;;;;;;;;;;21.60;96.60;;;;;;5036620;28;19925;-75
2022/10/04 04:10:37;;;;;;;;;;;21.60;96.60;;;;;;5036385;28;20476;-75
2022/10/04 04:13:07;;;;;;;;;;;21.60;96.70;;;;;;5036661;28;20019;-75
2022/10/04 04:15:34;;;;;;;;;;;21.60;96.70;;;;;;5036637;28;20036;-76
2022/10/04 04:18:02;;;;;;;;;;;21.60;96.70;;;;;;5036128;28;20388;-76
2022/10/04 04:20:31;;;;;;;;;;;21.60;96.80;;;;;;5036158;28;20012;-75
2022/10/04 04:23:03;;;;;;;;;;;21.60;96.80;;;;;;5036437;28;20023;-75
2022/10/04 04:25:32;;;;;;;;;;;21.50;96.60;;;;;;5036385;28;19979;-74
2022/10/04 04:28:07;;;;;;;;;;;21.50;96.50;;;;;;5036426;28;20019;-74
2022/10/04 04:30:36;;;;;;;;;;;21.50;96.40;;;;;;5036410;28;20023;-74
2022/10/04 04:33:06;;;;;;;;;;;21.50;96.40;;;;;;5036350;28;20016;-75
2022/10/04 04:35:35;;;;;;;;;;;21.50;96.40;;;;;;5036362;28;19931;-75
2022/10/04 04:38:02;;;;;;;;;;;21.50;96.30;;;;;;5035952;28;19931;-77
2022/10/04 04:40:29;;;;;;;;;;;21.50;96.30;;;;;;5036139;28;20019;-75
2022/10/04 04:42:57;;;;;;;;;;;21.50;96.30;;;;;;5036027;28;20024;-74
2022/10/04 04:45:28;;;;;;;;;;;21.50;96.30;;;;;;5036077;28;20008;-74
2022/10/04 04:47:56;;;;;;;;;;;21.50;96.10;;;;;;5035976;28;20023;-74
2022/10/04 04:50:24;;;;;;;;;;;21.50;96.00;;;;;;5035949;28;19925;-73
2022/10/04 04:52:52;;;;;;;;;;;21.60;96.10;;;;;;5034994;28;19925;-74
2022/10/04 04:55:20;;;;;;;;;;;21.60;96.10;;;;;;5035935;28;19926;-73
2022/10/04 04:57:47;;;;;;;;;;;21.50;96.00;;;;;;5035825;28;19932;-73
2022/10/04 05:00:18;;;;;;;;;;;21.60;95.90;;;;;;5035721;28;20116;-72
2022/10/04 05:02:53;;;;;;;;;;;21.60;95.80;;;;;;5035311;28;20293;-73
2022/10/04 14:42:58;;;;;;;;;;;21.50;71.00;;;;;;6153747;23;20698;31
2022/10/04 14:45:33;;;;;;;;;;;21.40;70.80;;;;;;5015283;28;19925;-77
2022/10/04 14:48:30;;;;;;;;;;;21.40;70.80;;;;;;5016332;28;19932;-77
2022/10/04 14:51:05;;;;;;;;;;;21.40;70.80;;;;;;4974152;28;20350;-76
2022/10/04 14:53:35;;;;;;;;;;;21.40;70.70;;;;;;5006706;28;20024;-77
2022/10/04 14:56:19;;;;;;;;;;;21.40;70.70;;;;;;5014531;28;19980;-76
2022/10/04 14:58:53;;;;;;;;;;;21.40;70.60;;;;;;5013374;28;19925;-77
2022/10/04 15:01:22;;;;;;;;;;;21.40;70.60;;;;;;5013957;28;20016;-77
2022/10/04 15:03:55;;;;;;;;;;;21.40;70.60;;;;;;5014780;28;19998;-76
2022/10/04 15:06:25;;;;;;;;;;;21.40;70.60;;;;;;5014407;28;19925;-76
2022/10/04 15:08:59;;;;;;;;;;;21.40;70.50;;;;;;5014934;28;20016;-76
2022/10/04 15:11:38;;;;;;;;;;;21.40;70.50;;;;;;5015319;28;20020;-76
2022/10/04 15:14:20;;;;;;;;;;;21.40;70.50;;;;;;5014959;28;19929;-77
2022/10/04 15:16:51;;;;;;;;;;;21.40;70.50;;;;;;5014345;28;19926;-76
2022/10/04 15:19:23;;;;;;;;;;;21.40;70.40;;;;;;5014513;28;19932;-76
2022/10/04 15:21:52;;;;;;;;;;;21.40;70.40;;;;;;5014629;28;20024;-77
2022/10/04 15:24:24;;;;;;;;;;;21.40;71.10;;;;;;5016271;28;19933;-77
2022/10/04 15:26:55;;;;;;;;;;;21.40;70.40;;;;;;5014715;28;19929;-77
2022/10/04 15:29:26;;;;;;;;;;;21.40;70.30;;;;;;5014103;28;20024;-76
2022/10/04 15:32:03;;;;;;;;;;;21.40;70.30;;;;;;5014910;28;20089;-80
2022/10/04 15:34:33;;;;;;;;;;;21.40;70.20;;;;;;5014564;28;19979;-77
2022/10/04 15:37:03;;;;;;;;;;;21.40;70.20;;;;;;5014421;28;19979;-76
2022/10/04 15:39:43;;;;;;;;;;;21.40;70.20;;;;;;5017448;28;19993;-76
2022/10/04 15:42:13;;;;;;;;;;;21.40;70.20;;;;;;5017596;28;20026;-76
2022/10/04 15:45:00;;;;;;;;;;;21.40;70.10;;;;;;5017341;28;20296;-77
2022/10/04 15:47:33;;;;;;;;;;;21.40;70.20;;;;;;5017786;28;19925;-77
2022/10/04 15:50:03;;;;;;;;;;;21.40;70.30;;;;;;5018061;28;20004;-79
2022/10/04 15:52:44;;;;;;;;;;;21.40;70.50;;;;;;5018570;28;19933;-79
2022/10/04 15:55:16;;;;;;;;;;;21.40;70.60;;;;;;5018484;28;19926;-78
2022/10/04 15:57:54;;;;;;;;;;;21.40;70.60;;;;;;5018070;28;20020;-79
2022/10/04 16:00:22;;;;;;;;;;;21.40;70.70;;;;;;5019021;28;20318;-79
2022/10/04 16:02:58;;;;;;;;;;;21.40;70.80;;;;;;5018905;28;20293;-79
2022/10/04 16:05:27;;;;;;;;;;;21.40;70.90;;;;;;5018612;28;19926;-79
2022/10/04 16:08:06;;;;;;;;;;;21.40;71.00;;;;;;5018651;28;19932;-79
2022/10/04 16:10:52;;;;;;;;;;;21.40;71.10;;;;;;5018955;28;20016;-79
2022/10/04 16:13:36;;;;;;;;;;;21.40;71.20;;;;;;5018415;28;19926;-79
2022/10/04 16:16:24;;;;;;;;;;;21.40;71.20;;;;;;5018680;28;20008;-79
2022/10/04 16:18:55;;;;;;;;;;;21.40;71.30;;;;;;5018446;28;19936;-79
2022/10/04 16:21:28;;;;;;;;;;;21.40;71.40;;;;;;5017706;28;20027;-79
2022/10/04 16:24:09;;;;;;;;;;;21.40;71.50;;;;;;5018097;28;20005;-79
2022/10/04 16:26:57;;;;;;;;;;;21.40;71.50;;;;;;5017939;28;20020;-79
2022/10/04 16:29:28;;;;;;;;;;;21.40;71.50;;;;;;5008643;28;20389;-79
2022/10/04 16:31:55;;;;;;;;;;;21.40;71.60;;;;;;5017640;28;19926;-79
2022/10/04 16:34:40;;;;;;;;;;;21.40;71.70;;;;;;5017481;28;20444;-79
2022/10/04 16:37:14;;;;;;;;;;;21.40;71.80;;;;;;5018502;28;19930;-79
2022/10/04 16:40:01;;;;;;;;;;;21.40;71.90;;;;;;5016836;28;21325;-79
2022/10/04 16:42:33;;;;;;;;;;;21.40;71.90;;;;;;5017484;28;20284;-79
2022/10/04 16:45:02;;;;;;;;;;;21.40;72.00;;;;;;5017181;28;19965;-79
2022/10/04 16:47:31;;;;;;;;;;;21.40;72.10;;;;;;5017397;28;19926;-79
2022/10/04 16:50:00;;;;;;;;;;;21.40;72.20;;;;;;5016592;28;20439;-80
2022/10/04 16:52:44;;;;;;;;;;;21.40;72.30;;;;;;5017252;28;19992;-79
2022/10/04 16:55:26;;;;;;;;;;;21.40;72.30;;;;;;5018219;28;20365;-80
2022/10/04 16:58:12;;;;;;;;;;;21.40;72.50;;;;;;5012396;28;19926;-80
2022/10/04 17:00:39;;;;;;;;;;;21.50;72.80;;;;;;5017419;28;20365;-80
2022/10/04 17:03:17;;;;;;;;;;;21.50;73.00;;;;;;5018916;28;19995;-79
2022/10/04 17:05:49;;;;;;;;;;;21.50;73.20;;;;;;5019754;28;19926;-80
2022/10/04 17:08:20;;;;;;;;;;;21.50;73.50;;;;;;5020399;28;19926;-81
2022/10/04 17:11:01;;;;;;;;;;;21.60;73.80;;;;;;5022812;28;20397;-81
2022/10/04 17:13:38;;;;;;;;;;;21.60;74.00;;;;;;5024284;28;19941;-82
2022/10/04 17:16:06;;;;;;;;;;;21.60;74.40;;;;;;5023098;28;19932;-81
2022/10/04 17:18:48;;;;;;;;;;;21.70;74.60;;;;;;5021029;28;19925;-79
2022/10/04 17:21:26;;;;;;;;;;;21.70;74.70;;;;;;5020293;28;19931;-79
2022/10/04 17:24:09;;;;;;;;;;;21.70;74.80;;;;;;5018425;28;20027;-80
2022/10/04 17:26:42;;;;;;;;;;;21.70;75.00;;;;;;5017978;28;20376;-79
2022/10/04 17:29:23;;;;;;;;;;;21.70;75.10;;;;;;5018792;28;20406;-80
2022/10/04 17:31:56;;;;;;;;;;;21.70;75.20;;;;;;5018470;28;19929;-79
2022/10/04 17:34:29;;;;;;;;;;;21.70;75.30;;;;;;5018048;28;19925;-77
2022/10/04 17:37:01;;;;;;;;;;;21.70;75.40;;;;;;5016750;28;19925;-77
2022/10/04 17:39:33;;;;;;;;;;;21.70;75.50;;;;;;5016518;28;19932;-75
2022/10/04 17:42:09;;;;;;;;;;;21.70;75.50;;;;;;5016604;28;19925;-75
2022/10/04 17:44:44;;;;;;;;;;;21.70;75.50;;;;;;5016087;28;19933;-75
2022/10/04 17:47:13;;;;;;;;;;;21.70;75.50;;;;;;5016385;28;20037;-75
2022/10/04 17:55:27;;;;;;;;;;;21.70;75.50;;;;;;5016263;28;20011;-74
2022/10/04 17:57:58;;;;;;;;;;;21.60;75.60;;;;;;5015266;28;20292;-76
2022/10/04 18:00:27;;;;;;;;;;;21.60;75.70;;;;;;5015506;28;20028;-75
2022/10/04 18:03:09;;;;;;;;;;;21.60;75.90;;;;;;5015451;28;19932;-76
2022/10/04 18:05:46;;;;;;;;;;;21.60;76.00;;;;;;5015101;28;20377;-76
2022/10/04 18:08:17;;;;;;;;;;;21.60;76.10;;;;;;5015368;28;19925;-77
2022/10/04 18:10:49;;;;;;;;;;;21.60;76.30;;;;;;5015663;28;19925;-76
2022/10/04 18:13:19;;;;;;;;;;;21.60;76.40;;;;;;5015673;28;20021;-77
2022/10/04 18:15:51;;;;;;;;;;;21.60;76.60;;;;;;5015600;28;19925;-76
2022/10/04 18:18:20;;;;;;;;;;;21.60;76.70;;;;;;5015474;28;20385;-77
2022/10/04 18:21:18;;;;;;;;;;;21.60;76.80;;;;;;5015762;28;19925;-77
2022/10/04 18:23:53;;;;;;;;;;;21.60;77.30;;;;;;5014645;28;19933;-76
2022/10/04 18:26:21;;;;;;;;;;;21.60;77.10;;;;;;5014605;28;19952;-76
2022/10/04 18:28:49;;;;;;;;;;;21.60;77.30;;;;;;5014978;28;19949;-76
2022/10/04 18:31:21;;;;;;;;;;;21.60;78.20;;;;;;5016078;28;20277;-76
2022/10/04 18:33:49;;;;;;;;;;;21.60;77.60;;;;;;5015487;28;19932;-76
2022/10/04 18:36:17;;;;;;;;;;;21.60;77.70;;;;;;5015984;28;19972;-78
2022/10/04 18:38:46;;;;;;;;;;;21.60;77.80;;;;;;5019371;28;19932;-80
2022/10/04 18:41:18;;;;;;;;;;;21.70;78.00;;;;;;5021409;28;19934;-79
2022/10/04 18:43:51;;;;;;;;;;;21.70;78.10;;;;;;5020583;28;19925;-77
2022/10/04 18:46:19;;;;;;;;;;;21.70;78.10;;;;;;5018672;28;19929;-79
2022/10/04 18:48:52;;;;;;;;;;;21.70;78.30;;;;;;5019464;28;20412;-80
2022/10/04 18:51:26;;;;;;;;;;;21.70;78.30;;;;;;5019660;28;19929;-79
2022/10/04 18:54:00;;;;;;;;;;;21.60;78.30;;;;;;5020159;28;19925;-81
2022/10/04 18:56:28;;;;;;;;;;;21.70;78.50;;;;;;5019074;28;19939;-80
2022/10/04 19:02:03;;;;;;;;;;;21.70;78.70;;;;;;5020177;28;19976;-80
2022/10/04 19:04:44;;;;;;;;;;;21.70;78.90;;;;;;5020574;28;19936;-81
2022/10/04 19:07:12;;;;;;;;;;;21.70;78.90;;;;;;5019810;28;19964;-81
2022/10/04 19:09:49;;;;;;;;;;;21.70;79.00;;;;;;5020117;28;19937;-81
2022/10/04 19:12:21;;;;;;;;;;;21.70;79.80;;;;;;5021503;28;19933;-81
2022/10/04 19:14:52;;;;;;;;;;;21.70;79.10;;;;;;5023173;28;20348;-81
2022/10/04 19:17:22;;;;;;;;;;;21.70;79.20;;;;;;5023563;28;20421;-83
2022/10/04 19:19:54;;;;;;;;;;;21.70;79.30;;;;;;5023532;28;19980;-81
2022/10/04 19:22:30;;;;;;;;;;;21.70;79.30;;;;;;5024346;28;19932;-82
2022/10/04 19:25:05;;;;;;;;;;;21.70;79.40;;;;;;5023587;28;19980;-81
2022/10/04 19:27:35;;;;;;;;;;;21.70;79.50;;;;;;5023874;28;19929;-80
2022/10/04 19:30:05;;;;;;;;;;;21.70;79.50;;;;;;5023329;28;19933;-82
2022/10/04 19:32:37;;;;;;;;;;;21.70;79.50;;;;;;5023973;28;20332;-82
2022/10/04 19:35:10;;;;;;;;;;;21.70;79.60;;;;;;5094501;22;20015;-74
2022/10/04 19:37:39;;;;;;;;;;;21.60;79.50;;;;;;5037608;28;19925;-74
2022/10/04 19:40:09;;;;;;;;;;;21.70;79.60;;;;;;5037444;28;20020;-73
2022/10/04 19:42:44;;;;;;;;;;;21.70;79.60;;;;;;5037430;28;19925;-72
2022/10/04 19:45:17;;;;;;;;;;;21.70;79.60;;;;;;5037113;28;19972;-72
2022/10/04 19:47:47;;;;;;;;;;;21.60;79.50;;;;;;5037187;28;19992;-73
2022/10/04 19:50:20;;;;;;;;;;;21.70;79.60;;;;;;5037050;28;20391;-73
2022/10/04 19:52:56;;;;;;;;;;;21.70;79.60;;;;;;5036902;28;19925;-73
2022/10/04 19:55:25;;;;;;;;;;;21.60;80.20;;;;;;5037176;28;19948;-73
2022/10/04 19:58:00;;;;;;;;;;;21.60;79.50;;;;;;5036882;28;19926;-73
2022/10/04 20:00:27;;;;;;;;;;;21.60;79.50;;;;;;5036823;28;20028;-73
2022/10/04 20:02:54;;;;;;;;;;;21.60;79.50;;;;;;5036638;28;19925;-73
2022/10/04 20:05:23;;;;;;;;;;;21.60;79.50;;;;;;5036789;28;19925;-73
2022/10/04 20:07:51;;;;;;;;;;;21.60;79.50;;;;;;5036920;28;19925;-73
2022/10/04 20:10:32;;;;;;;;;;;21.60;79.50;;;;;;5036927;28;20439;-73
2022/10/04 20:13:15;;;;;;;;;;;21.60;79.60;;;;;;5037090;28;19932;-73
2022/10/04 20:15:45;;;;;;;;;;;21.60;79.60;;;;;;5036906;28;19978;-73
2022/10/04 20:18:31;;;;;;;;;;;21.60;79.70;;;;;;5036956;28;19965;-74
2022/10/04 20:21:05;;;;;;;;;;;21.60;79.80;;;;;;5036888;28;19932;-74
2022/10/04 20:23:56;;;;;;;;;;;21.50;79.70;;;;;;5035096;28;19925;-74
2022/10/04 20:26:54;;;;;;;;;;;21.50;79.80;;;;;;5026271;28;20278;-74
2022/10/04 20:29:39;;;;;;;;;;;21.50;79.80;;;;;;5036343;28;19932;-74
2022/10/04 20:32:08;;;;;;;;;;;21.50;79.90;;;;;;5036580;28;20355;-74
2022/10/04 20:34:48;;;;;;;;;;;21.50;80.00;;;;;;5036061;28;19925;-74
2022/10/04 20:37:17;;;;;;;;;;;21.50;80.10;;;;;;5036504;28;20296;-74
2022/10/04 20:39:59;;;;;;;;;;;21.50;80.10;;;;;;5036027;28;19925;-75
2022/10/04 20:42:28;;;;;;;;;;;21.50;80.20;;;;;;5036143;28;19925;-75
2022/10/04 20:44:56;;;;;;;;;;;21.50;80.20;;;;;;5035953;28;19979;-75
2022/10/04 20:47:41;;;;;;;;;;;21.50;80.30;;;;;;5036279;28;19925;-74
2022/10/04 20:50:20;;;;;;;;;;;21.50;80.40;;;;;;5036700;28;19947;-74
2022/10/04 20:52:48;;;;;;;;;;;21.50;80.50;;;;;;5035771;28;20399;-74
2022/10/04 20:55:20;;;;;;;;;;;21.50;80.60;;;;;;5035656;28;19925;-74
2022/10/04 20:57:47;;;;;;;;;;;21.50;80.70;;;;;;5035676;28;19966;-74
2022/10/04 21:00:18;;;;;;;;;;;21.50;80.70;;;;;;5035608;28;19925;-74
2022/10/04 21:02:47;;;;;;;;;;;21.50;80.90;;;;;;5035599;28;19926;-74
2022/10/04 21:05:15;;;;;;;;;;;21.50;81.00;;;;;;5035587;28;19925;-74
2022/10/04 21:07:42;;;;;;;;;;;21.50;81.10;;;;;;5035565;28;19929;-74
2022/10/04 21:10:16;;;;;;;;;;;21.40;81.00;;;;;;5034214;28;19925;-74
2022/10/04 21:12:43;;;;;;;;;;;21.50;81.10;;;;;;5035982;28;19928;-74
2022/10/04 21:15:19;;;;;;;;;;;21.40;81.00;;;;;;5035713;28;19929;-74
2022/10/04 21:18:00;;;;;;;;;;;21.40;81.00;;;;;;5035352;28;19925;-73
2022/10/04 21:20:42;;;;;;;;;;;21.40;81.00;;;;;;5035620;28;19975;-74
